createdAt,value
2018-08-17T00:01:56.893Z,86.78
2018-08-17T00:04:25.976Z,86.66
2018-08-17T00:06:55.037Z,86.52
2018-08-17T00:09:24.368Z,86.70
2018-08-17T00:11:53.133Z,86.91
2018-08-17T00:14:22.146Z,87.34
2018-08-17T00:16:51.581Z,87.33
2018-08-17T00:19:20.947Z,87.92
2018-08-17T00:21:49.697Z,88.05
2018-08-17T00:24:19.293Z,88.10
2018-08-17T00:26:48.245Z,88.27
2018-08-17T00:29:17.448Z,88.73
2018-08-17T00:31:46.173Z,89.04
2018-08-17T00:34:14.901Z,88.75
2018-08-17T00:36:43.930Z,88.94
2018-08-17T00:39:12.668Z,88.97
2018-08-17T00:41:41.835Z,89.78
2018-08-17T00:44:11.090Z,90.13
2018-08-17T00:46:40.201Z,90.13
2018-08-17T00:49:08.995Z,90.73
2018-08-17T00:51:37.735Z,91.02
2018-08-17T00:54:06.526Z,90.99
2018-08-17T00:56:35.660Z,91.05
2018-08-17T00:59:04.444Z,91.22
2018-08-17T01:01:33.229Z,91.32
2018-08-17T01:04:01.982Z,92.03
2018-08-17T01:06:31.215Z,91.90
2018-08-17T01:08:59.973Z,92.22
2018-08-17T01:11:28.741Z,92.28
2018-08-17T01:13:57.732Z,92.31
2018-08-17T01:16:26.727Z,92.27
2018-08-17T01:18:55.503Z,93.05
2018-08-17T01:21:24.290Z,93.09
2018-08-17T01:23:53.325Z,92.65
2018-08-17T01:26:22.444Z,92.70
2018-08-17T01:28:51.229Z,92.65
2018-08-17T01:31:20.419Z,92.50
2018-08-17T01:33:49.142Z,92.48
2018-08-17T01:36:17.937Z,92.42
2018-08-17T01:38:47.233Z,93.03
2018-08-17T01:41:15.994Z,92.76
2018-08-17T01:43:44.755Z,92.43
2018-08-17T01:46:13.560Z,92.66
2018-08-17T01:48:42.961Z,93.09
2018-08-17T01:51:12.621Z,93.03
2018-08-17T01:53:41.415Z,93.42
2018-08-17T01:56:10.699Z,93.45
2018-08-17T01:58:39.841Z,93.62
2018-08-17T02:01:08.569Z,93.82
2018-08-17T02:03:37.767Z,94.09
2018-08-17T02:06:06.547Z,94.14
2018-08-17T02:08:35.262Z,93.96
2018-08-17T02:11:04.307Z,93.51
2018-08-17T02:13:33.135Z,94.03
2018-08-17T02:16:02.194Z,93.74
2018-08-17T02:18:38.204Z,94.12
2018-08-17T02:21:07.575Z,94.16
2018-08-17T02:23:36.638Z,94.80
2018-08-17T02:26:05.751Z,94.35
2018-08-17T02:28:34.729Z,94.77
2018-08-17T02:31:04.573Z,93.92
2018-08-17T02:33:33.425Z,94.38
2018-08-17T02:36:02.163Z,94.85
2018-08-17T02:38:30.982Z,94.70
2018-08-17T02:40:59.741Z,94.85
2018-08-17T02:43:28.587Z,95.98
2018-08-17T02:45:57.530Z,96.39
2018-08-17T02:48:26.281Z,96.79
2018-08-17T02:50:55.356Z,96.83
2018-08-17T02:53:24.859Z,97.76
2018-08-17T02:55:53.701Z,97.84
2018-08-17T02:58:23.708Z,97.76
2018-08-17T03:00:52.602Z,98.08
2018-08-17T03:03:21.718Z,98.64
2018-08-17T03:05:50.879Z,99.08
2018-08-17T03:08:19.667Z,99.82
2018-08-17T03:10:49.350Z,99.88
2018-08-17T03:13:21.062Z,99.36
2018-08-17T03:15:50.085Z,99.32
2018-08-17T03:18:19.261Z,99.15
2018-08-17T03:20:48.414Z,99.33
2018-08-17T03:23:17.931Z,99.46
2018-08-17T03:25:46.885Z,99.88
2018-08-17T03:28:16.766Z,99.84
2018-08-17T03:30:45.498Z,99.59
2018-08-17T03:33:14.651Z,100.00
2018-08-17T03:35:43.376Z,99.53
2018-08-17T03:38:12.166Z,100.00
2018-08-17T03:40:41.015Z,100.00
2018-08-17T03:43:10.084Z,99.98
2018-08-17T03:45:38.811Z,100.00
2018-08-17T03:48:08.013Z,100.00
2018-08-17T03:50:36.829Z,100.00
2018-08-17T03:53:06.376Z,99.46
2018-08-17T03:55:35.126Z,99.85
2018-08-17T03:58:04.394Z,99.57
2018-08-17T04:00:39.688Z,99.45
2018-08-17T04:03:09.988Z,99.89
2018-08-17T04:05:40.535Z,100.00
2018-08-17T04:08:10.395Z,99.69
2018-08-17T04:10:40.648Z,99.79
2018-08-17T04:13:10.642Z,99.86
2018-08-17T04:15:40.803Z,100.00
2018-08-17T04:18:10.328Z,100.00
2018-08-17T04:20:39.838Z,100.00
2018-08-17T04:23:08.679Z,100.00
2018-08-17T04:25:37.427Z,100.00
2018-08-17T04:28:06.331Z,100.00
2018-08-17T04:30:35.068Z,100.00
2018-08-17T04:35:45.394Z,100.00
2018-08-17T04:38:14.174Z,100.00
2018-08-17T04:40:43.010Z,100.00
2018-08-17T04:43:12.038Z,100.00
2018-08-17T04:45:40.779Z,100.00
2018-08-17T04:48:10.059Z,100.00
2018-08-17T04:50:40.101Z,100.00
2018-08-17T04:53:10.346Z,100.00
2018-08-17T04:55:40.928Z,100.00
2018-08-17T04:58:09.691Z,100.00
2018-08-17T05:00:38.580Z,100.00
2018-08-17T05:03:07.476Z,100.00
2018-08-17T05:05:36.292Z,100.00
2018-08-17T05:08:05.082Z,100.00
2018-08-17T05:10:34.357Z,100.00
2018-08-17T05:13:03.144Z,100.00
2018-08-17T05:15:32.871Z,100.00
2018-08-17T05:18:01.671Z,100.00
2018-08-17T05:20:30.522Z,100.00
2018-08-17T05:22:59.562Z,100.00
2018-08-17T05:25:28.374Z,100.00
2018-08-17T05:27:57.914Z,100.00
2018-08-17T05:30:27.272Z,100.00
2018-08-17T05:32:56.215Z,100.00
2018-08-17T05:35:25.104Z,100.00
2018-08-17T05:37:54.161Z,100.00
2018-08-17T05:40:23.672Z,100.00
2018-08-17T05:42:52.822Z,100.00
2018-08-17T05:45:21.541Z,100.00
2018-08-17T05:47:50.651Z,100.00
2018-08-17T05:50:19.385Z,100.00
2018-08-17T05:52:48.492Z,100.00
2018-08-17T05:55:17.250Z,100.00
2018-08-17T05:57:47.392Z,100.00
2018-08-17T06:00:16.496Z,100.00
2018-08-17T06:02:45.386Z,100.00
2018-08-17T06:05:14.188Z,100.00
2018-08-17T06:07:42.958Z,100.00
2018-08-17T06:10:12.001Z,100.00
2018-08-17T06:12:40.765Z,100.00
2018-08-17T06:15:09.678Z,100.00
2018-08-17T06:17:38.696Z,100.00
2018-08-17T06:20:08.386Z,100.00
2018-08-17T06:22:37.456Z,100.00
2018-08-17T06:25:13.923Z,100.00
2018-08-17T06:27:43.459Z,100.00
2018-08-17T06:30:14.665Z,100.00
2018-08-17T06:32:43.791Z,100.00
2018-08-17T06:35:13.958Z,100.00
2018-08-17T06:37:43.530Z,100.00
2018-08-17T06:40:12.699Z,100.00
2018-08-17T06:42:44.344Z,100.00
2018-08-17T06:45:13.540Z,100.00
2018-08-17T06:47:42.821Z,100.00
2018-08-17T06:50:12.185Z,100.00
2018-08-17T06:52:42.053Z,100.00
2018-08-17T06:55:12.026Z,100.00
2018-08-17T06:57:41.475Z,100.00
2018-08-17T07:00:13.485Z,100.00
2018-08-17T07:02:43.166Z,100.00
2018-08-17T07:05:15.113Z,100.00
2018-08-17T07:07:44.375Z,100.00
2018-08-17T07:10:14.572Z,100.00
2018-08-17T07:12:43.774Z,100.00
2018-08-17T07:15:13.134Z,100.00
2018-08-17T07:17:42.440Z,100.00
2018-08-17T07:20:12.700Z,100.00
2018-08-17T07:22:42.052Z,100.00
2018-08-17T07:25:10.831Z,100.00
2018-08-17T07:27:39.664Z,100.00
2018-08-17T07:30:09.137Z,100.00
2018-08-17T07:32:37.934Z,100.00
2018-08-17T07:35:08.449Z,100.00
2018-08-17T07:37:37.671Z,100.00
2018-08-17T07:40:06.484Z,100.00
2018-08-17T07:42:36.221Z,100.00
2018-08-17T07:45:05.624Z,100.00
2018-08-17T07:47:34.397Z,100.00
2018-08-17T07:50:03.724Z,100.00
2018-08-17T07:52:32.449Z,100.00
2018-08-17T07:55:02.439Z,100.00
2018-08-17T07:57:31.864Z,100.00
2018-08-17T08:00:00.658Z,100.00
2018-08-17T08:02:29.443Z,100.00
2018-08-17T08:04:59.118Z,100.00
2018-08-17T08:07:27.944Z,100.00
2018-08-17T08:09:57.045Z,100.00
2018-08-17T08:12:25.822Z,100.00
2018-08-17T08:14:54.583Z,100.00
2018-08-17T08:17:23.386Z,100.00
2018-08-17T08:20:03.418Z,100.00
2018-08-17T08:22:32.526Z,100.00
2018-08-17T08:25:01.248Z,100.00
2018-08-17T08:27:30.061Z,100.00
2018-08-17T08:29:59.122Z,100.00
2018-08-17T08:32:27.928Z,100.00
2018-08-17T08:34:56.652Z,100.00
2018-08-17T08:37:25.773Z,100.00
2018-08-17T08:39:54.541Z,100.00
2018-08-17T08:42:23.561Z,100.00
2018-08-17T08:44:52.533Z,100.00
2018-08-17T08:47:21.270Z,100.00
2018-08-17T08:49:50.047Z,100.00
2018-08-17T08:52:18.787Z,99.10
2018-08-17T08:54:47.554Z,98.73
2018-08-17T08:57:16.342Z,98.99
2018-08-17T08:59:45.664Z,98.24
2018-08-17T09:02:14.679Z,95.99
2018-08-17T09:04:43.990Z,95.22
2018-08-17T09:07:12.824Z,95.96
2018-08-17T09:09:41.768Z,96.02
2018-08-17T09:12:10.583Z,94.81
2018-08-17T09:14:39.349Z,93.60
2018-08-17T09:17:08.148Z,92.25
2018-08-17T09:19:36.915Z,91.17
2018-08-17T09:22:05.692Z,91.71
2018-08-17T09:24:35.161Z,90.12
2018-08-17T09:27:04.067Z,89.47
2018-08-17T09:29:32.799Z,89.63
2018-08-17T09:32:01.592Z,88.91
2018-08-17T09:34:30.921Z,89.19
2018-08-17T09:36:59.775Z,89.70
2018-08-17T09:39:28.684Z,87.31
2018-08-17T09:41:57.572Z,86.88
2018-08-17T09:44:26.823Z,86.79
2018-08-17T09:46:55.900Z,86.36
2018-08-17T09:49:24.958Z,83.97
2018-08-17T09:51:53.721Z,83.99
2018-08-17T09:54:22.837Z,82.96
2018-08-17T09:56:51.657Z,81.59
2018-08-17T09:59:20.428Z,82.08
2018-08-17T10:01:54.882Z,79.53
2018-08-17T10:04:28.874Z,79.96
2018-08-17T10:07:02.724Z,80.64
2018-08-17T10:09:36.655Z,79.42
2018-08-17T10:12:05.432Z,76.38
2018-08-17T10:14:34.556Z,73.66
2018-08-17T10:17:03.713Z,72.39
2018-08-17T10:19:34.000Z,71.38
2018-08-17T10:22:03.054Z,70.56
2018-08-17T10:24:31.754Z,67.18
2018-08-17T10:27:02.176Z,67.00
2018-08-17T10:29:31.446Z,64.25
2018-08-17T10:32:02.468Z,65.44
2018-08-17T10:34:33.929Z,63.78
2018-08-17T10:37:04.225Z,61.90
2018-08-17T10:39:34.140Z,58.94
2018-08-17T10:42:03.867Z,60.82
2018-08-17T10:44:34.646Z,59.69
2018-08-17T10:47:04.851Z,55.97
2018-08-17T10:49:34.497Z,58.69
2018-08-17T10:52:05.142Z,59.24
2018-08-17T10:54:33.954Z,54.85
2018-08-17T10:57:03.363Z,52.09
2018-08-17T10:59:32.118Z,53.00
2018-08-17T11:02:00.912Z,52.38
2018-08-17T11:04:31.580Z,50.65
2018-08-17T11:07:00.344Z,51.35
2018-08-17T11:09:29.332Z,50.41
2018-08-17T11:11:58.157Z,48.92
2018-08-17T11:14:27.228Z,48.42
2018-08-17T11:16:56.089Z,47.64
2018-08-17T11:19:24.913Z,45.61
2018-08-17T11:21:53.646Z,45.57
2018-08-17T11:24:22.742Z,46.90
2018-08-17T11:26:51.679Z,46.63
2018-08-17T11:29:20.669Z,45.35
2018-08-17T11:31:52.331Z,44.86
2018-08-17T11:34:21.549Z,45.62
2018-08-17T11:36:50.403Z,45.19
2018-08-17T11:39:19.717Z,43.56
2018-08-17T11:41:48.480Z,43.84
2018-08-17T11:44:17.393Z,43.32
2018-08-17T11:46:46.144Z,42.22
2018-08-17T11:49:15.181Z,40.76
2018-08-17T11:51:43.934Z,42.33
2018-08-17T11:54:13.242Z,42.33
2018-08-17T11:56:42.532Z,42.02
2018-08-17T11:59:11.567Z,42.68
2018-08-17T12:01:40.540Z,41.26
2018-08-17T12:04:09.549Z,42.36
2018-08-17T12:06:38.596Z,42.29
2018-08-17T12:09:09.025Z,42.26
2018-08-17T12:11:37.766Z,40.99
2018-08-17T12:14:06.527Z,40.91
2018-08-17T12:16:36.102Z,37.73
2018-08-17T12:19:05.562Z,37.22
2018-08-17T12:21:34.351Z,37.39
2018-08-17T12:24:03.103Z,37.19
2018-08-17T12:26:38.165Z,36.84
2018-08-17T12:29:06.929Z,37.57
2018-08-17T12:31:36.471Z,37.41
2018-08-17T12:34:05.540Z,36.99
2018-08-17T12:36:34.958Z,36.66
2018-08-17T12:39:04.493Z,37.50
2018-08-17T12:41:33.255Z,35.77
2018-08-17T12:44:02.396Z,37.73
2018-08-17T12:46:31.887Z,35.41
2018-08-17T12:49:01.110Z,37.45
2018-08-17T12:51:30.248Z,36.87
2018-08-17T12:53:59.315Z,38.10
2018-08-17T12:56:28.070Z,37.25
2018-08-17T12:58:57.425Z,36.81
2018-08-17T13:01:26.162Z,38.24
2018-08-17T13:03:55.202Z,38.15
2018-08-17T13:06:23.911Z,38.79
2018-08-17T13:08:52.664Z,38.89
2018-08-17T13:11:21.801Z,37.11
2018-08-17T13:13:53.748Z,38.18
2018-08-17T13:16:22.489Z,39.60
2018-08-17T13:18:51.179Z,39.55
2018-08-17T13:21:19.955Z,36.27
2018-08-17T13:23:48.947Z,38.47
2018-08-17T13:26:17.774Z,38.15
2018-08-17T13:28:46.557Z,36.50
2018-08-17T13:31:15.339Z,36.08
2018-08-17T13:33:44.071Z,38.96
2018-08-17T13:36:13.098Z,38.39
2018-08-17T13:38:42.206Z,39.64
2018-08-17T13:41:11.010Z,38.33
2018-08-17T13:43:40.017Z,39.75
2018-08-17T13:46:08.950Z,40.87
2018-08-17T13:48:38.019Z,39.70
2018-08-17T13:51:06.882Z,37.79
2018-08-17T13:53:36.279Z,37.45
2018-08-17T13:56:05.085Z,37.45
2018-08-17T13:58:33.809Z,38.23
2018-08-17T14:01:02.622Z,38.77
2018-08-17T14:03:31.722Z,38.47
2018-08-17T14:06:00.671Z,38.24
2018-08-17T14:08:29.575Z,37.48
2018-08-17T14:10:58.309Z,36.58
2018-08-17T14:13:27.349Z,36.56
2018-08-17T14:15:56.105Z,38.48
2018-08-17T14:18:25.153Z,38.07
2018-08-17T14:20:54.935Z,36.45
2018-08-17T14:23:23.673Z,35.19
2018-08-17T14:25:52.967Z,36.21
2018-08-17T14:28:21.761Z,34.60
2018-08-17T14:30:50.528Z,35.91
2018-08-17T14:33:19.278Z,35.42
2018-08-17T14:35:48.303Z,35.00
2018-08-17T14:38:25.596Z,35.70
2018-08-17T14:40:54.339Z,34.23
2018-08-17T14:43:23.085Z,35.88
2018-08-17T14:45:52.931Z,34.20
2018-08-17T14:48:21.626Z,34.01
2018-08-17T14:50:50.759Z,34.31
2018-08-17T14:53:20.156Z,34.88
2018-08-17T14:55:48.950Z,36.40
2018-08-17T14:58:18.422Z,36.99
2018-08-17T15:00:47.422Z,36.22
2018-08-17T15:03:16.215Z,37.42
2018-08-17T15:05:45.334Z,37.67
2018-08-17T15:08:14.845Z,36.22
2018-08-17T15:10:43.582Z,37.29
2018-08-17T15:13:12.945Z,38.30
2018-08-17T15:15:41.742Z,38.64
2018-08-17T15:18:10.454Z,38.44
2018-08-17T15:20:39.644Z,39.38
2018-08-17T15:23:08.946Z,38.17
2018-08-17T15:25:39.148Z,37.94
2018-08-17T15:28:07.943Z,38.43
2018-08-17T15:30:36.932Z,39.93
2018-08-17T15:33:05.746Z,40.06
2018-08-17T15:35:34.510Z,40.38
2018-08-17T15:38:03.287Z,40.08
2018-08-17T15:40:32.371Z,41.14
2018-08-17T15:43:10.131Z,40.38
2018-08-17T15:45:39.223Z,40.80
2018-08-17T15:48:08.249Z,40.25
2018-08-17T15:50:37.047Z,38.54
2018-08-17T15:53:05.835Z,38.07
2018-08-17T15:55:35.160Z,39.08
2018-08-17T15:58:03.960Z,37.79
2018-08-17T16:00:32.734Z,37.77
2018-08-17T16:03:01.695Z,36.78
2018-08-17T16:05:30.458Z,35.62
2018-08-17T16:07:59.934Z,37.04
2018-08-17T16:10:28.841Z,36.13
2018-08-17T16:12:57.498Z,36.00
2018-08-17T16:15:26.288Z,35.84
2018-08-17T16:17:55.346Z,36.23
2018-08-17T16:20:24.114Z,36.36
2018-08-17T16:22:52.905Z,35.40
2018-08-17T16:25:21.713Z,35.31
2018-08-17T16:27:50.450Z,36.14
2018-08-17T16:30:19.482Z,36.06
2018-08-17T16:32:48.477Z,35.79
2018-08-17T16:35:17.982Z,36.78
2018-08-17T16:37:51.437Z,37.28
2018-08-17T16:40:20.567Z,35.43
2018-08-17T16:42:51.646Z,37.01
2018-08-17T16:45:20.749Z,36.19
2018-08-17T16:47:49.506Z,37.03
2018-08-17T16:50:18.590Z,37.53
2018-08-17T16:52:47.832Z,38.74
2018-08-17T16:55:17.171Z,38.68
2018-08-17T16:57:45.970Z,39.13
2018-08-17T17:00:15.012Z,39.74
2018-08-17T17:02:44.082Z,40.02
2018-08-17T17:05:13.224Z,40.93
2018-08-17T17:07:42.375Z,40.84
2018-08-17T17:10:11.117Z,42.28
2018-08-17T17:12:40.387Z,42.26
2018-08-17T17:15:15.366Z,42.62
2018-08-17T17:17:53.541Z,43.68
2018-08-17T17:20:22.652Z,43.82
2018-08-17T17:22:51.402Z,43.43
2018-08-17T17:25:20.619Z,43.70
2018-08-17T17:27:49.994Z,44.58
2018-08-17T17:30:18.908Z,45.43
2018-08-17T17:32:48.298Z,45.33
2018-08-17T17:35:17.414Z,45.05
2018-08-17T17:37:46.457Z,45.53
2018-08-17T17:40:15.309Z,45.66
2018-08-17T17:42:44.091Z,45.08
2018-08-17T17:45:13.166Z,45.78
2018-08-17T17:47:41.963Z,47.40
2018-08-17T17:50:10.977Z,49.27
2018-08-17T17:52:40.100Z,50.35
2018-08-17T17:55:09.272Z,50.85
2018-08-17T17:57:37.986Z,51.37
2018-08-17T18:00:06.993Z,51.67
2018-08-17T18:02:35.778Z,51.65
2018-08-17T18:05:04.607Z,52.12
2018-08-17T18:07:39.658Z,51.59
2018-08-17T18:10:08.663Z,52.68
2018-08-17T18:12:37.386Z,52.46
2018-08-17T18:15:06.676Z,53.20
2018-08-17T18:17:35.530Z,53.36
2018-08-17T18:20:04.345Z,52.98
2018-08-17T18:22:33.383Z,53.55
2018-08-17T18:25:18.963Z,53.95
2018-08-17T18:27:49.013Z,54.17
2018-08-17T18:30:18.093Z,54.09
2018-08-17T18:32:47.563Z,54.76
2018-08-17T18:35:16.477Z,54.92
2018-08-17T18:37:45.486Z,54.45
2018-08-17T18:40:14.580Z,54.40
2018-08-17T18:42:43.400Z,55.37
2018-08-17T18:45:12.572Z,55.66
2018-08-17T18:47:41.352Z,55.25
2018-08-17T18:50:10.551Z,55.91
2018-08-17T18:52:39.626Z,55.97
2018-08-17T18:55:09.046Z,56.46
2018-08-17T18:57:38.250Z,56.51
2018-08-17T19:00:09.574Z,56.64
2018-08-17T19:02:38.260Z,56.74
2018-08-17T19:05:07.472Z,57.30
2018-08-17T19:07:36.871Z,57.24
2018-08-17T19:10:06.538Z,57.51
2018-08-17T19:12:35.758Z,57.44
2018-08-17T19:15:08.800Z,58.64
2018-08-17T19:17:37.950Z,58.55
2018-08-17T19:20:09.690Z,59.07
2018-08-17T19:22:40.053Z,59.33
2018-08-17T19:25:10.435Z,59.40
2018-08-17T19:27:40.217Z,59.84
2018-08-17T19:30:23.369Z,60.12
2018-08-17T19:32:53.595Z,60.17
2018-08-17T19:35:22.365Z,60.75
2018-08-17T19:37:52.064Z,60.58
2018-08-17T19:40:21.550Z,61.01
2018-08-17T19:42:50.498Z,61.60
2018-08-17T19:45:19.810Z,62.05
2018-08-17T19:47:48.681Z,62.20
2018-08-17T19:50:17.508Z,62.93
2018-08-17T19:52:46.333Z,62.94
2018-08-17T19:55:15.218Z,63.19
2018-08-17T19:57:43.990Z,64.03
2018-08-17T20:00:13.542Z,64.83
2018-08-17T20:02:42.981Z,65.19
2018-08-17T20:05:12.513Z,65.48
2018-08-17T20:07:41.703Z,66.34
2018-08-17T20:10:11.952Z,66.34
2018-08-17T20:12:42.157Z,66.67
2018-08-17T20:15:11.192Z,66.93
2018-08-17T20:17:40.523Z,67.64
2018-08-17T20:20:11.005Z,67.81
2018-08-17T20:22:46.208Z,68.15
2018-08-17T20:25:16.631Z,68.02
2018-08-17T20:27:46.147Z,68.15
2018-08-17T20:30:21.253Z,69.00
2018-08-17T20:32:50.047Z,68.90
2018-08-17T20:35:18.841Z,69.19
2018-08-17T20:37:49.843Z,69.95
2018-08-17T20:40:18.967Z,70.22
2018-08-17T20:42:48.261Z,70.48
2018-08-17T20:45:17.296Z,70.70
2018-08-17T20:47:46.353Z,70.98
2018-08-17T20:50:18.064Z,70.56
2018-08-17T20:53:02.245Z,71.31
2018-08-17T20:55:31.222Z,71.02
2018-08-17T20:58:00.306Z,71.28
2018-08-17T21:00:30.070Z,71.63
2018-08-17T21:02:59.084Z,72.04
2018-08-17T21:05:27.829Z,72.88
2018-08-17T21:07:56.856Z,72.90
2018-08-17T21:10:25.795Z,72.94
2018-08-17T21:12:54.576Z,73.02
2018-08-17T21:15:23.360Z,73.67
2018-08-17T21:17:52.703Z,74.53
2018-08-17T21:20:21.766Z,74.82
2018-08-17T21:22:51.130Z,75.04
2018-08-17T21:25:20.081Z,75.36
2018-08-17T21:27:49.132Z,75.64
2018-08-17T21:30:17.905Z,75.87
2018-08-17T21:32:46.653Z,75.88
2018-08-17T21:35:15.412Z,75.85
2018-08-17T21:37:44.215Z,76.72
2018-08-17T21:40:30.253Z,75.92
2018-08-17T21:43:01.860Z,76.62
2018-08-17T21:45:31.050Z,76.81
2018-08-17T21:48:00.245Z,76.98
2018-08-17T21:50:29.515Z,76.68
2018-08-17T21:52:58.572Z,77.14
2018-08-17T21:55:27.851Z,77.24
2018-08-17T21:57:56.615Z,77.49
2018-08-17T22:00:30.894Z,78.23
2018-08-17T22:03:00.144Z,77.89
2018-08-17T22:05:30.598Z,78.52
2018-08-17T22:08:00.730Z,78.33
2018-08-17T22:10:30.184Z,78.39
2018-08-17T22:12:59.367Z,78.83
2018-08-17T22:15:30.249Z,79.16
2018-08-17T22:18:00.072Z,79.72
2018-08-17T22:20:28.902Z,79.62
2018-08-17T22:22:58.720Z,79.82
2018-08-17T22:25:27.608Z,80.28
2018-08-17T22:27:56.667Z,80.50
2018-08-17T22:30:26.773Z,80.45
2018-08-17T22:32:55.842Z,80.85
2018-08-17T22:35:24.673Z,81.31
2018-08-17T22:37:54.551Z,80.85
2018-08-17T22:40:25.073Z,80.89
2018-08-17T22:43:02.120Z,81.41
2018-08-17T22:45:31.321Z,81.29
2018-08-17T22:48:00.415Z,82.00
2018-08-17T22:50:29.395Z,82.45
2018-08-17T22:52:59.314Z,82.58
2018-08-17T22:55:28.547Z,83.04
2018-08-17T22:58:00.531Z,82.88
2018-08-17T23:00:31.565Z,82.28
2018-08-17T23:03:01.846Z,82.49
2018-08-17T23:05:32.487Z,83.02
2018-08-17T23:08:02.074Z,82.59
2018-08-17T23:10:31.050Z,82.60
2018-08-17T23:12:59.999Z,82.89
2018-08-17T23:15:28.790Z,82.71
2018-08-17T23:17:59.426Z,82.98
2018-08-17T23:20:34.948Z,82.75
2018-08-17T23:23:04.654Z,83.28
2018-08-17T23:25:34.227Z,83.53
2018-08-17T23:28:03.262Z,84.13
2018-08-17T23:30:32.123Z,85.08
2018-08-17T23:33:00.885Z,85.29
2018-08-17T23:35:29.903Z,85.01
2018-08-17T23:37:58.875Z,85.09
2018-08-17T23:40:28.768Z,85.01
2018-08-17T23:42:57.780Z,85.09
2018-08-17T23:45:26.658Z,85.02
2018-08-17T23:47:55.683Z,85.01
2018-08-17T23:50:24.512Z,85.85
2018-08-17T23:52:53.468Z,86.30
2018-08-17T23:55:22.857Z,86.70
2018-08-17T23:57:53.024Z,86.84
